createdAt,value
2019-05-03T00:02:26.894Z,99110.44
2019-05-03T00:05:21.968Z,99119.16
2019-05-03T00:07:56.054Z,99124.20
2019-05-03T00:10:26.811Z,99125.59
2019-05-03T00:12:57.861Z,99122.08
2019-05-03T00:15:35.829Z,99120.77
2019-05-03T00:18:06.658Z,99119.83
2019-05-03T00:20:37.973Z,99124.91
2019-05-03T00:23:08.726Z,99125.98
2019-05-03T00:25:39.556Z,99126.89
2019-05-03T00:28:10.315Z,99119.36
2019-05-03T00:30:42.328Z,99127.75
2019-05-03T00:33:13.593Z,99129.41
2019-05-03T00:36:03.418Z,99124.39
2019-05-03T00:38:35.886Z,99124.39
2019-05-03T00:41:06.703Z,99129.28
2019-05-03T00:43:37.571Z,99124.67
2019-05-03T00:46:08.398Z,99129.67
2019-05-03T00:48:39.399Z,99124.13
2019-05-03T00:51:11.764Z,99122.33
2019-05-03T00:53:42.592Z,99129.50
2019-05-03T00:56:13.733Z,99129.77
2019-05-03T00:58:52.942Z,99126.50
2019-05-03T01:01:24.134Z,99126.85
2019-05-03T01:03:55.419Z,99128.20
2019-05-03T01:06:26.509Z,99132.37
2019-05-03T01:08:57.392Z,99134.79
2019-05-03T01:11:28.487Z,99137.59
2019-05-03T01:13:59.274Z,99129.86
2019-05-03T01:16:31.522Z,99141.49
2019-05-03T01:19:03.345Z,99137.39
2019-05-03T01:21:34.387Z,99130.56
2019-05-03T01:24:05.510Z,99137.36
2019-05-03T01:26:36.288Z,99135.14
2019-05-03T01:29:07.623Z,99132.90
2019-05-03T01:31:38.900Z,99133.08
2019-05-03T01:34:09.926Z,99139.21
2019-05-03T01:36:42.609Z,99134.02
2019-05-03T01:39:14.421Z,99133.03
2019-05-03T01:41:45.435Z,99144.65
2019-05-03T01:44:16.222Z,99143.35
2019-05-03T01:46:48.169Z,99144.62
2019-05-03T01:49:27.892Z,99142.84
2019-05-03T01:52:22.204Z,99141.55
2019-05-03T01:54:53.481Z,99141.58
2019-05-03T01:57:24.441Z,99139.45
2019-05-03T01:59:55.229Z,99144.18
2019-05-03T02:02:46.574Z,99145.83
2019-05-03T02:05:34.483Z,99143.35
2019-05-03T02:08:05.341Z,99139.21
2019-05-03T02:10:36.817Z,99141.39
2019-05-03T02:13:07.685Z,99138.94
2019-05-03T02:15:38.875Z,99143.40
2019-05-03T02:18:12.960Z,99145.85
2019-05-03T02:20:42.152Z,99150.38
2019-05-03T02:23:12.918Z,99146.41
2019-05-03T02:25:55.572Z,99151.48
2019-05-03T02:28:17.391Z,99155.98
2019-05-03T02:30:48.147Z,99153.18
2019-05-03T02:33:18.970Z,99154.48
2019-05-03T02:35:49.957Z,99158.30
2019-05-03T02:38:23.322Z,99157.15
2019-05-03T02:40:53.838Z,99157.89
2019-05-03T02:43:38.021Z,99161.99
2019-05-03T02:46:28.077Z,99163.92
2019-05-03T02:49:11.244Z,99162.94
2019-05-03T02:51:42.475Z,99159.78
2019-05-03T02:54:15.629Z,99163.30
2019-05-03T02:56:47.678Z,99163.24
2019-05-03T02:59:18.509Z,99160.59
2019-05-03T03:01:49.329Z,99160.61
2019-05-03T03:04:20.166Z,99165.81
2019-05-03T03:06:55.468Z,99170.19
2019-05-03T03:09:26.131Z,99170.67
2019-05-03T03:11:58.725Z,99171.50
2019-05-03T03:14:31.001Z,99174.27
2019-05-03T03:17:06.427Z,99175.45
2019-05-03T03:19:36.518Z,99176.23
2019-05-03T03:22:10.767Z,99172.36
2019-05-03T03:24:45.788Z,99178.95
2019-05-03T03:27:20.099Z,99184.14
2019-05-03T03:29:55.369Z,99178.64
2019-05-03T03:32:37.807Z,99190.69
2019-05-03T03:35:20.215Z,99181.34
2019-05-03T03:37:46.533Z,99181.92
2019-05-03T03:40:18.650Z,99189.08
2019-05-03T03:42:49.885Z,99185.39
2019-05-03T03:45:20.787Z,99189.55
2019-05-03T03:47:56.351Z,99190.95
2019-05-03T03:50:27.982Z,99188.15
2019-05-03T03:52:59.586Z,99187.26
2019-05-03T03:55:32.156Z,99192.28
2019-05-03T03:58:06.200Z,99196.70
2019-05-03T04:00:36.590Z,99197.91
2019-05-03T04:03:07.505Z,99201.69
2019-05-03T04:05:38.417Z,99203.09
2019-05-03T04:08:09.238Z,99210.24
2019-05-03T04:10:40.220Z,99219.44
2019-05-03T04:13:15.730Z,99218.06
2019-05-03T04:16:05.385Z,99224.59
2019-05-03T04:18:49.503Z,99231.05
2019-05-03T04:21:20.805Z,99222.78
2019-05-03T04:23:51.899Z,99235.55
2019-05-03T04:26:29.457Z,99229.89
2019-05-03T04:28:56.724Z,99230.20
2019-05-03T04:31:27.950Z,99230.20
2019-05-03T04:33:58.954Z,99238.36
2019-05-03T04:36:29.702Z,99231.05
2019-05-03T04:39:00.701Z,99245.94
2019-05-03T04:41:35.554Z,99251.92
2019-05-03T04:44:06.459Z,99255.97
2019-05-03T04:46:37.571Z,99255.89
2019-05-03T04:49:08.320Z,99261.87
2019-05-03T04:51:39.290Z,99265.20
2019-05-03T04:54:37.868Z,99269.70
2019-05-03T04:57:08.838Z,99264.19
2019-05-03T04:59:39.920Z,99277.58
2019-05-03T05:02:10.978Z,99275.11
2019-05-03T05:04:41.737Z,99281.48
2019-05-03T05:07:15.268Z,99293.41
2019-05-03T05:09:45.548Z,99294.14
2019-05-03T05:12:16.827Z,99297.34
2019-05-03T05:14:47.890Z,99301.83
2019-05-03T05:17:27.986Z,99305.38
2019-05-03T05:20:08.514Z,99303.84
2019-05-03T05:22:40.018Z,99309.38
2019-05-03T05:25:14.928Z,99309.98
2019-05-03T05:28:04.753Z,99309.38
2019-05-03T05:30:35.565Z,99312.92
2019-05-03T05:33:08.898Z,99308.17
2019-05-03T05:35:40.318Z,99314.55
2019-05-03T05:38:11.298Z,99314.39
2019-05-03T05:40:42.052Z,99314.26
2019-05-03T05:43:15.124Z,99318.85
2019-05-03T05:45:46.083Z,99321.42
2019-05-03T05:48:24.500Z,99324.22
2019-05-03T05:50:55.328Z,99322.28
2019-05-03T05:53:26.481Z,99325.46
2019-05-03T05:56:22.323Z,99327.53
2019-05-03T05:59:06.225Z,99328.94
2019-05-03T06:01:48.313Z,99328.35
2019-05-03T06:04:19.056Z,99331.34
2019-05-03T06:07:15.077Z,99333.58
2019-05-03T06:09:55.581Z,99337.62
2019-05-03T06:12:32.945Z,99336.84
2019-05-03T06:15:08.693Z,99342.03
2019-05-03T06:17:50.532Z,99341.52
2019-05-03T06:20:31.145Z,99341.98
2019-05-03T06:23:09.158Z,99344.70
2019-05-03T06:25:42.191Z,99352.80
2019-05-03T06:28:20.984Z,99356.52
2019-05-03T06:31:14.900Z,99358.86
2019-05-03T06:33:46.704Z,99353.45
2019-05-03T06:36:36.439Z,99355.02
2019-05-03T06:39:26.338Z,99355.23
2019-05-03T06:42:19.149Z,99360.41
2019-05-03T06:45:10.210Z,99360.23
2019-05-03T06:47:40.283Z,99349.34
2019-05-03T06:50:14.342Z,99357.62
2019-05-03T06:52:45.156Z,99363.87
2019-05-03T06:55:15.989Z,99360.59
2019-05-03T06:57:49.499Z,99359.86
2019-05-03T07:00:30.682Z,99357.87
2019-05-03T07:03:15.190Z,99365.41
2019-05-03T07:06:34.521Z,99360.17
2019-05-03T07:09:18.350Z,99359.84
2019-05-03T07:11:50.078Z,99364.29
2019-05-03T07:14:21.082Z,99367.56
2019-05-03T07:16:51.873Z,99359.50
2019-05-03T07:19:24.868Z,99363.78
2019-05-03T07:21:55.555Z,99363.72
2019-05-03T07:24:26.286Z,99351.77
2019-05-03T07:26:59.104Z,99351.77
2019-05-03T07:29:29.823Z,99375.25
2019-05-03T07:32:02.433Z,99369.14
2019-05-03T07:34:35.034Z,99379.15
2019-05-03T07:37:06.105Z,99381.76
2019-05-03T07:39:37.057Z,99390.42
2019-05-03T07:42:07.822Z,99379.70
2019-05-03T07:44:39.047Z,99385.59
2019-05-03T07:47:10.034Z,99381.58
2019-05-03T07:49:40.816Z,99382.54
2019-05-03T07:52:12.051Z,99382.54
2019-05-03T07:54:44.981Z,99381.72
2019-05-03T07:57:28.118Z,99385.57
2019-05-03T07:59:59.259Z,99384.74
2019-05-03T08:02:29.992Z,99382.78
2019-05-03T08:05:00.814Z,99385.84
2019-05-03T08:07:31.652Z,99383.45
2019-05-03T08:10:05.285Z,99388.24
2019-05-03T08:12:35.560Z,99396.06
2019-05-03T08:15:06.453Z,99392.16
2019-05-03T08:17:37.702Z,99390.77
2019-05-03T08:20:08.617Z,99399.30
2019-05-03T08:22:39.786Z,99400.58
2019-05-03T08:25:11.906Z,99405.16
2019-05-03T08:27:44.559Z,99397.86
2019-05-03T08:30:20.530Z,99387.64
2019-05-03T08:33:05.525Z,99393.53
2019-05-03T08:35:44.685Z,99397.48
2019-05-03T08:38:15.373Z,99401.09
2019-05-03T08:40:47.860Z,99393.68
2019-05-03T08:43:18.891Z,99398.39
2019-05-03T08:45:49.883Z,99393.84
2019-05-03T08:48:20.646Z,99394.73
2019-05-03T08:50:51.773Z,99390.76
2019-05-03T08:53:25.424Z,99392.00
2019-05-03T08:55:55.471Z,99392.14
2019-05-03T08:58:26.241Z,99390.30
2019-05-03T09:00:57.031Z,99395.56
2019-05-03T09:03:28.542Z,99394.44
2019-05-03T09:05:59.550Z,99396.59
2019-05-03T09:08:30.846Z,99374.95
2019-05-03T09:11:11.024Z,99374.95
2019-05-03T09:13:55.875Z,99379.75
2019-05-03T09:16:26.974Z,99374.11
2019-05-03T09:18:57.804Z,99383.95
2019-05-03T09:21:29.030Z,99383.25
2019-05-03T09:23:59.845Z,99378.03
2019-05-03T09:26:30.604Z,99383.92
2019-05-03T09:29:01.344Z,99363.45
2019-05-03T09:31:32.339Z,99363.45
2019-05-03T09:34:07.491Z,99372.79
2019-05-03T09:36:35.686Z,99367.19
2019-05-03T09:39:07.685Z,99363.27
2019-05-03T09:41:38.625Z,99359.99
2019-05-03T09:44:09.638Z,99368.98
2019-05-03T09:46:40.445Z,99373.82
2019-05-03T09:49:14.459Z,99375.28
2019-05-03T09:51:44.463Z,99377.56
2019-05-03T09:54:29.672Z,99370.30
2019-05-03T09:57:00.830Z,99365.17
2019-05-03T09:59:32.101Z,99358.71
2019-05-03T10:02:04.810Z,99361.77
2019-05-03T10:04:36.655Z,99350.09
2019-05-03T10:07:08.605Z,99360.16
2019-05-03T10:09:39.974Z,99360.16
2019-05-03T10:12:16.311Z,99356.98
2019-05-03T10:14:47.642Z,99346.01
2019-05-03T10:17:52.397Z,99343.80
2019-05-03T10:20:25.677Z,99349.70
2019-05-03T10:22:59.615Z,99345.98
2019-05-03T10:25:30.905Z,99346.05
2019-05-03T10:28:01.873Z,99340.42
2019-05-03T10:30:32.606Z,99346.88
2019-05-03T10:33:15.602Z,99344.94
2019-05-03T10:35:47.599Z,99338.70
2019-05-03T10:38:18.654Z,99343.47
2019-05-03T10:40:50.600Z,99337.88
2019-05-03T10:43:21.649Z,99329.69
2019-05-03T10:45:52.626Z,99332.33
2019-05-03T10:48:24.843Z,99331.18
2019-05-03T10:50:56.429Z,99339.22
2019-05-03T10:53:35.227Z,99334.61
2019-05-03T10:56:23.366Z,99341.44
2019-05-03T10:59:00.285Z,99337.49
2019-05-03T11:01:49.121Z,99328.71
2019-05-03T11:04:20.137Z,99328.14
2019-05-03T11:06:51.153Z,99324.09
2019-05-03T11:09:21.894Z,99328.36
2019-05-03T11:11:55.316Z,99320.08
2019-05-03T11:14:25.810Z,99314.47
2019-05-03T11:16:57.084Z,99314.56
2019-05-03T11:19:28.312Z,99309.61
2019-05-03T11:21:59.040Z,99317.61
2019-05-03T11:24:29.779Z,99311.48
2019-05-03T11:27:02.839Z,99315.33
2019-05-03T11:29:35.553Z,99306.12
2019-05-03T11:32:40.416Z,99318.03
2019-05-03T11:35:15.933Z,99317.15
2019-05-03T11:37:56.599Z,99318.20
2019-05-03T11:40:27.348Z,99316.91
2019-05-03T11:42:59.983Z,99314.59
2019-05-03T11:45:30.836Z,99316.47
2019-05-03T11:48:01.819Z,99308.37
2019-05-03T11:50:34.774Z,99312.09
2019-05-03T11:53:05.681Z,99313.31
2019-05-03T11:55:36.596Z,99307.84
2019-05-03T11:58:18.535Z,99312.20
2019-05-03T12:01:10.800Z,99313.31
2019-05-03T12:03:35.567Z,99310.44
2019-05-03T12:06:06.493Z,99307.51
2019-05-03T12:08:37.246Z,99304.98
2019-05-03T12:11:07.992Z,99307.92
2019-05-03T12:13:38.713Z,99299.07
2019-05-03T12:16:17.129Z,99304.16
2019-05-03T12:18:50.116Z,99297.37
2019-05-03T12:21:18.082Z,99297.41
2019-05-03T12:23:48.727Z,99301.02
2019-05-03T12:26:20.834Z,99305.03
2019-05-03T12:28:52.350Z,99298.84
2019-05-03T12:31:33.345Z,99304.11
2019-05-03T12:33:55.604Z,99301.41
2019-05-03T12:36:44.986Z,99293.53
2019-05-03T12:39:26.283Z,99296.30
2019-05-03T12:41:48.629Z,99297.14
2019-05-03T12:44:19.363Z,99285.69
2019-05-03T12:46:50.107Z,99290.95
2019-05-03T12:49:20.843Z,99291.27
2019-05-03T12:51:51.848Z,99287.67
2019-05-03T12:54:24.284Z,99281.50
2019-05-03T12:56:56.065Z,99276.89
2019-05-03T12:59:45.206Z,99278.52
2019-05-03T13:02:38.749Z,99274.88
2019-05-03T13:05:09.559Z,99284.07
2019-05-03T13:07:45.628Z,99266.03
2019-05-03T13:10:21.708Z,99276.98
2019-05-03T13:12:53.041Z,99277.51
2019-05-03T13:15:21.542Z,99273.91
2019-05-03T13:17:52.267Z,99273.23
2019-05-03T13:20:25.046Z,99268.47
2019-05-03T13:22:55.957Z,99263.99
2019-05-03T13:25:27.898Z,99261.72
2019-05-03T13:27:58.850Z,99254.17
2019-05-03T13:30:29.581Z,99255.63
2019-05-03T13:33:02.619Z,99254.16
2019-05-03T13:35:39.660Z,99250.14
2019-05-03T13:38:41.577Z,99253.40
2019-05-03T13:41:31.039Z,99256.06
2019-05-03T13:44:25.495Z,99259.76
2019-05-03T13:47:07.843Z,99263.25
2019-05-03T13:50:19.966Z,99260.28
2019-05-03T13:52:51.300Z,99260.80
2019-05-03T13:55:22.106Z,99251.38
2019-05-03T13:57:54.779Z,99249.77
2019-05-03T14:00:25.566Z,99244.85
2019-05-03T14:02:56.564Z,99236.72
2019-05-03T14:05:28.263Z,99241.82
2019-05-03T14:07:59.399Z,99231.19
2019-05-03T14:10:30.616Z,99228.91
2019-05-03T14:13:01.812Z,99229.39
2019-05-03T14:15:34.819Z,99217.98
2019-05-03T14:18:06.158Z,99218.73
2019-05-03T14:20:55.066Z,99218.00
2019-05-03T14:23:26.109Z,99219.16
2019-05-03T14:25:57.177Z,99218.52
2019-05-03T14:28:27.964Z,99216.87
2019-05-03T14:30:58.779Z,99211.65
2019-05-03T14:33:29.860Z,99221.26
2019-05-03T14:36:00.826Z,99225.31
2019-05-03T14:38:31.812Z,99227.81
2019-05-03T14:41:05.370Z,99233.37
2019-05-03T14:43:35.615Z,99226.80
2019-05-03T14:46:06.420Z,99228.08
2019-05-03T14:48:37.234Z,99224.47
2019-05-03T14:51:08.262Z,99225.08
2019-05-03T14:53:39.730Z,99228.49
2019-05-03T14:56:15.390Z,99223.33
2019-05-03T14:59:08.635Z,99209.24
2019-05-03T15:01:44.711Z,99225.02
2019-05-03T15:04:15.430Z,99213.25
2019-05-03T15:06:46.418Z,99215.39
2019-05-03T15:09:19.128Z,99215.52
2019-05-03T15:11:50.751Z,99215.83
2019-05-03T15:14:21.538Z,99215.83
2019-05-03T15:16:52.532Z,99210.93
2019-05-03T15:19:25.233Z,99212.36
2019-05-03T15:21:55.704Z,99210.20
2019-05-03T15:24:26.415Z,99212.67
2019-05-03T15:26:57.232Z,99213.16
2019-05-03T15:29:28.182Z,99206.92
2019-05-03T15:31:58.911Z,99205.30
2019-05-03T15:34:29.865Z,99206.62
2019-05-03T15:37:00.819Z,99203.31
2019-05-03T15:39:31.641Z,99207.41
2019-05-03T15:42:02.633Z,99205.92
2019-05-03T15:44:58.284Z,99203.00
2019-05-03T15:47:48.265Z,99213.98
2019-05-03T15:52:50.738Z,99205.43
2019-05-03T15:55:21.477Z,99188.83
2019-05-03T15:57:52.456Z,99198.58
2019-05-03T16:00:24.478Z,99204.28
2019-05-03T16:03:07.455Z,99196.27
2019-05-03T16:05:29.144Z,99201.20
2019-05-03T16:08:00.609Z,99201.37
2019-05-03T16:10:31.548Z,99201.88
2019-05-03T16:13:02.548Z,99206.13
2019-05-03T16:15:35.049Z,99199.06
2019-05-03T16:18:05.950Z,99197.73
2019-05-03T16:20:39.445Z,99201.65
2019-05-03T16:23:09.655Z,99204.74
2019-05-03T16:25:40.625Z,99202.63
2019-05-03T16:28:16.580Z,99198.20
2019-05-03T16:30:55.562Z,99197.80
2019-05-03T16:33:28.204Z,99195.32
2019-05-03T16:35:59.016Z,99200.87
2019-05-03T16:38:29.822Z,99197.12
2019-05-03T16:41:01.283Z,99180.59
2019-05-03T16:43:34.880Z,99186.20
2019-05-03T16:46:05.965Z,99179.20
2019-05-03T16:48:36.825Z,99185.27
2019-05-03T16:51:08.089Z,99180.34
2019-05-03T16:53:38.901Z,99182.91
2019-05-03T16:56:09.959Z,99186.84
2019-05-03T16:58:40.929Z,99188.24
2019-05-03T17:01:13.566Z,99187.55
2019-05-03T17:03:48.868Z,99187.86
2019-05-03T17:06:26.881Z,99187.48
2019-05-03T17:09:18.118Z,99185.19
2019-05-03T17:12:36.573Z,99186.92
2019-05-03T17:15:38.111Z,99176.42
2019-05-03T17:18:29.535Z,99186.27
2019-05-03T17:21:25.464Z,99182.28
2019-05-03T17:24:06.320Z,99181.52
2019-05-03T17:26:46.811Z,99182.89
2019-05-03T17:29:30.992Z,99179.17
2019-05-03T17:32:44.562Z,99176.48
2019-05-03T17:35:25.728Z,99176.48
2019-05-03T17:38:26.623Z,99191.65
2019-05-03T17:41:32.191Z,99180.67
2019-05-03T17:44:20.567Z,99186.07
2019-05-03T17:47:04.289Z,99186.11
2019-05-03T17:49:54.635Z,99181.15
2019-05-03T17:52:49.353Z,99180.33
2019-05-03T17:55:39.795Z,99180.72
2019-05-03T17:58:30.164Z,99182.33
2019-05-03T18:04:37.870Z,99182.03
2019-05-03T18:07:34.806Z,99184.48
2019-05-03T18:10:10.645Z,99180.13
2019-05-03T18:12:49.542Z,99185.77
2019-05-03T18:15:35.748Z,99192.70
2019-05-03T18:18:15.759Z,99187.63
2019-05-03T18:20:58.772Z,99178.33
2019-05-03T18:23:39.071Z,99184.69
2019-05-03T18:26:16.870Z,99183.73
2019-05-03T18:29:08.030Z,99184.24
2019-05-03T18:31:59.980Z,99178.93
2019-05-03T18:34:32.517Z,99182.44
2019-05-03T18:37:04.804Z,99195.34
2019-05-03T18:39:35.715Z,99191.65
2019-05-03T18:42:08.364Z,99193.70
2019-05-03T18:44:46.743Z,99197.89
2019-05-03T18:47:20.733Z,99199.55
2019-05-03T18:49:51.828Z,99196.52
2019-05-03T18:52:23.156Z,99203.69
2019-05-03T18:54:55.182Z,99203.64
2019-05-03T18:57:26.024Z,99205.73
2019-05-03T18:59:56.984Z,99211.69
2019-05-03T19:02:27.981Z,99208.48
2019-05-03T19:04:58.959Z,99211.27
2019-05-03T19:07:52.066Z,99213.58
2019-05-03T19:10:30.973Z,99213.64
2019-05-03T19:13:05.965Z,99214.05
2019-05-03T19:15:36.795Z,99214.23
2019-05-03T19:18:12.510Z,99222.92
2019-05-03T19:20:45.447Z,99213.35
2019-05-03T19:23:15.943Z,99216.75
2019-05-03T19:25:49.572Z,99212.44
2019-05-03T19:28:19.427Z,99219.03
2019-05-03T19:30:50.578Z,99220.86
2019-05-03T19:33:21.325Z,99222.28
2019-05-03T19:35:54.919Z,99220.41
2019-05-03T19:38:25.767Z,99213.33
2019-05-03T19:40:56.579Z,99211.79
2019-05-03T19:43:27.321Z,99214.45
2019-05-03T19:45:58.059Z,99210.81
2019-05-03T19:48:29.067Z,99210.05
2019-05-03T19:50:59.789Z,99206.88
2019-05-03T19:53:49.789Z,99204.27
2019-05-03T19:56:21.615Z,99203.59
2019-05-03T19:58:56.103Z,99212.17
2019-05-03T20:01:36.730Z,99211.47
2019-05-03T20:04:34.825Z,99208.58
2019-05-03T20:07:31.306Z,99213.27
2019-05-03T20:10:02.330Z,99215.98
2019-05-03T20:12:35.273Z,99214.54
2019-05-03T20:15:06.221Z,99214.69
2019-05-03T20:17:36.941Z,99222.69
2019-05-03T20:20:07.770Z,99212.83
2019-05-03T20:22:38.573Z,99225.45
2019-05-03T20:25:09.306Z,99223.72
2019-05-03T20:27:40.402Z,99216.52
2019-05-03T20:30:11.310Z,99222.80
2019-05-03T20:32:42.027Z,99221.38
2019-05-03T20:35:18.721Z,99222.89
2019-05-03T20:37:45.740Z,99220.62
2019-05-03T20:40:17.028Z,99215.88
2019-05-03T20:43:01.100Z,99215.63
2019-05-03T20:45:49.404Z,99210.78
2019-05-03T20:48:21.086Z,99213.38
2019-05-03T20:50:51.822Z,99218.64
2019-05-03T20:53:22.769Z,99212.51
2019-05-03T20:55:54.613Z,99211.25
2019-05-03T20:58:25.585Z,99203.82
2019-05-03T21:00:56.383Z,99208.52
2019-05-03T21:03:27.109Z,99215.01
2019-05-03T21:05:57.923Z,99215.52
2019-05-03T21:08:28.651Z,99212.67
2019-05-03T21:10:59.616Z,99214.23
2019-05-03T21:13:39.989Z,99216.83
2019-05-03T21:16:14.765Z,99216.83
2019-05-03T21:19:04.872Z,99211.98
2019-05-03T21:21:42.112Z,99214.06
2019-05-03T21:24:17.851Z,99211.62
2019-05-03T21:26:48.849Z,99207.36
2019-05-03T21:29:19.814Z,99204.29
2019-05-03T21:31:50.549Z,99196.52
2019-05-03T21:34:21.353Z,99192.50
2019-05-03T21:36:52.091Z,99198.42
2019-05-03T21:39:24.714Z,99190.16
2019-05-03T21:41:55.829Z,99194.16
2019-05-03T21:44:30.648Z,99202.89
2019-05-03T21:47:12.939Z,99200.34
2019-05-03T21:49:44.739Z,99206.59
2019-05-03T21:52:15.721Z,99205.87
2019-05-03T21:54:46.452Z,99207.87
2019-05-03T21:57:17.268Z,99203.25
2019-05-03T21:59:48.008Z,99199.38
2019-05-03T22:02:18.895Z,99200.55
2019-05-03T22:04:49.973Z,99193.34
2019-05-03T22:07:20.937Z,99192.83
2019-05-03T22:09:51.877Z,99199.67
2019-05-03T22:12:24.822Z,99192.14
2019-05-03T22:15:04.964Z,99195.06
2019-05-03T22:17:53.959Z,99187.52
2019-05-03T22:20:37.345Z,99183.64
2019-05-03T22:23:15.303Z,99179.93
2019-05-03T22:25:46.050Z,99173.34
2019-05-03T22:28:17.439Z,99173.59
2019-05-03T22:30:48.391Z,99167.83
2019-05-03T22:33:19.106Z,99168.83
2019-05-03T22:35:50.088Z,99168.66
2019-05-03T22:38:21.103Z,99165.96
2019-05-03T22:40:51.823Z,99165.17
2019-05-03T22:43:22.771Z,99155.98
2019-05-03T22:45:54.807Z,99162.02
2019-05-03T22:48:25.852Z,99160.23
2019-05-03T22:50:56.583Z,99159.09
2019-05-03T22:53:27.546Z,99165.27
2019-05-03T22:55:58.380Z,99159.14
2019-05-03T22:58:29.129Z,99148.91
2019-05-03T23:00:59.841Z,99158.23
2019-05-03T23:03:32.926Z,99145.22
2019-05-03T23:06:05.087Z,99142.52
2019-05-03T23:08:35.824Z,99141.69
2019-05-03T23:11:06.638Z,99130.18
2019-05-03T23:13:37.583Z,99127.69
2019-05-03T23:16:08.643Z,99120.94
2019-05-03T23:18:39.602Z,99123.49
2019-05-03T23:21:15.997Z,99119.34
2019-05-03T23:23:54.855Z,99104.69
2019-05-03T23:26:26.086Z,99106.20
2019-05-03T23:28:57.110Z,99108.80
2019-05-03T23:31:27.850Z,99103.09
2019-05-03T23:33:59.289Z,99098.25
2019-05-03T23:36:33.665Z,99091.08
2019-05-03T23:39:05.266Z,99094.00
2019-05-03T23:41:36.274Z,99094.00
2019-05-03T23:44:07.222Z,99094.26
2019-05-03T23:46:45.456Z,99091.86
2019-05-03T23:49:16.574Z,99084.66
2019-05-03T23:51:52.337Z,99082.27
2019-05-03T23:54:24.704Z,99081.32
2019-05-03T23:56:55.856Z,99073.13
2019-05-03T23:59:27.070Z,99064.05
